Time;durP1;ratioP1;P1;durP2;ratioP2;P2;SDS_P1;SDS_P2;PMS_P1;PMS_P2;Temp;Humidity;BMP_temperature;BMP_pressure;BME280_temperature;BME280_humidity;BME280_pressure;Samples;Min_cycle;Max_cycle;Signal;HPM_P1;HPM_P2
2021/09/11 00:00:51;;;;;;;14.90;8.13;;;;;;;18.56;78.66;101441.28;5066757;28;20040;-79
2021/09/11 00:03:17;;;;;;;11.50;7.75;;;;;;;18.53;78.79;101436.41;5066744;28;20451;-79
2021/09/11 00:05:42;;;;;;;11.02;9.48;;;;;;;18.45;79.27;101435.09;5063493;28;20029;-79
2021/09/11 00:08:08;;;;;;;11.18;8.43;;;;;;;18.41;79.13;101434.06;5067391;28;20104;-78
2021/09/11 00:10:34;;;;;;;11.02;8.30;;;;;;;18.35;79.46;101425.16;5066227;28;20028;-79
2021/09/11 00:13:00;;;;;;;11.65;8.38;;;;;;;18.31;79.43;101428.72;5060410;28;20020;-79
2021/09/11 00:15:31;;;;;;;10.07;7.85;;;;;;;18.30;79.25;101433.31;5063612;28;20044;-79
2021/09/11 00:17:57;;;;;;;9.93;7.53;;;;;;;18.29;79.59;101433.59;5060603;28;20025;-80
2021/09/11 00:20:23;;;;;;;9.98;8.15;;;;;;;18.22;79.31;101433.13;5064406;28;20020;-78
2021/09/11 00:22:49;;;;;;;11.20;8.27;;;;;;;18.10;79.58;101438.91;5066062;28;20242;-78
2021/09/11 00:25:15;;;;;;;10.55;8.20;;;;;;;18.07;79.65;101444.88;5066266;28;20547;-79
2021/09/11 00:27:40;;;;;;;14.68;9.20;;;;;;;17.92;80.81;101453.91;5065240;28;20037;-79
2021/09/11 00:30:06;;;;;;;12.90;8.75;;;;;;;17.65;84.92;101457.03;5062061;28;20032;-79
2021/09/11 00:32:34;;;;;;;15.75;9.90;;;;;;;17.68;84.08;101456.50;5060226;28;20394;-80
2021/09/11 00:34:59;;;;;;;10.93;8.07;;;;;;;17.75;82.97;101454.28;5064982;28;20498;-81
2021/09/11 00:37:25;;;;;;;12.10;8.00;;;;;;;17.75;82.22;101448.84;5065482;28;20040;-82
2021/09/11 00:39:51;;;;;;;12.18;8.00;;;;;;;17.75;81.46;101442.63;5082427;28;20630;-80
2021/09/11 00:42:16;;;;;;;11.82;8.23;;;;;;;17.71;81.18;101441.56;5063779;28;20094;-82
2021/09/11 00:44:42;;;;;;;13.18;8.48;;;;;;;17.69;81.07;101438.34;5067538;28;20028;-82
2021/09/11 00:47:07;;;;;;;12.32;8.23;;;;;;;17.63;81.01;101440.22;5064107;28;20017;-82
2021/09/11 00:49:33;;;;;;;10.48;7.72;;;;;;;17.55;80.95;101443.50;5065502;28;20051;-81
2021/09/11 00:51:58;;;;;;;12.80;8.77;;;;;;;17.46;82.69;101447.88;5066495;28;20331;-81
2021/09/11 00:54:24;;;;;;;12.05;9.48;;;;;;;17.53;81.93;101438.38;5066021;28;20033;-82
2021/09/11 00:56:51;;;;;;;12.27;8.40;;;;;;;17.51;82.09;101443.25;5061508;28;20032;-82
2021/09/11 00:59:16;;;;;;;11.65;8.00;;;;;;;17.50;81.94;101446.25;5064763;28;20021;-81
2021/09/11 01:01:42;;;;;;;13.90;8.68;;;;;;;17.47;81.79;101435.97;5062405;28;20051;-83
2021/09/11 01:04:07;;;;;;;14.35;8.70;;;;;;;17.42;81.80;101444.13;5069524;28;20024;-82
2021/09/11 01:06:33;;;;;;;15.07;8.85;;;;;;;17.39;81.79;101452.78;5067550;28;20026;-82
2021/09/11 01:08:59;;;;;;;12.85;9.60;;;;;;;17.37;81.95;101454.94;5066226;28;20028;-80
2021/09/11 01:11:25;;;;;;;12.60;8.02;;;;;;;17.33;82.30;101456.59;5063063;28;20036;-81
2021/09/11 01:13:50;;;;;;;12.55;9.23;;;;;;;17.31;82.48;101447.94;5065718;28;20028;-81
2021/09/11 01:16:15;;;;;;;14.45;9.95;;;;;;;17.26;82.68;101446.06;5067803;28;20033;-83
2021/09/11 01:18:41;;;;;;;17.00;9.85;;;;;;;17.19;82.86;101449.03;5063196;28;20517;-80
2021/09/11 01:21:07;;;;;;;13.55;8.55;;;;;;;17.15;82.45;101453.41;5068538;28;20032;-81
2021/09/11 01:23:34;;;;;;;12.43;8.40;;;;;;;17.07;81.88;101453.97;5069138;28;20028;-80
2021/09/11 01:25:59;;;;;;;10.98;8.23;;;;;;;16.97;81.77;101443.16;5064368;28;20020;-81
2021/09/11 01:30:50;;;;;;;11.98;7.97;;;;;;;16.89;81.61;101451.84;5035764;27;20667;-56
2021/09/11 01:33:15;;;;;;;14.52;9.35;;;;;;;16.80;81.94;101451.56;5031810;28;20037;-56
2021/09/11 01:35:41;;;;;;;12.38;8.70;;;;;;;16.79;82.05;101452.66;5027012;28;20029;-56
2021/09/11 01:38:07;;;;;;;12.48;9.38;;;;;;;16.77;82.29;101457.53;5026248;28;20029;-57
2021/09/11 01:40:32;;;;;;;15.02;10.18;;;;;;;16.77;82.67;101449.41;5027931;28;20105;-56
2021/09/11 01:42:58;;;;;;;14.40;10.43;;;;;;;16.78;83.13;101450.22;5032602;28;20144;-56
2021/09/11 01:45:45;;;;;;;15.63;9.70;;;;;;;16.71;83.20;101455.09;5045070;22;20502;-88
2021/09/11 01:49:04;;;;;;;16.95;11.20;;;;;;;16.65;83.76;101450.72;5027968;28;20511;-88
2021/09/11 02:02:09;;;;;;;18.13;12.50;;;;;;;16.10;91.76;101455.81;4980078;28;20566;-88
2021/09/11 02:08:30;;;;;;;18.08;9.60;;;;;;;16.26;87.62;101448.56;4993177;28;20076;-87
2021/09/11 02:11:47;;;;;;;13.00;8.50;;;;;;;16.29;86.36;101453.41;5010866;28;20532;-87
2021/09/11 10:47:53;;;;;;;23.15;17.73;;;;;;;25.20;61.14;101612.50;4933287;29;20580;-49
2021/09/11 10:50:19;;;;;;;11.13;9.75;;;;;;;25.39;60.14;101601.97;4930860;29;20040;-48
2021/09/11 10:53:20;;;;;;;12.15;9.95;;;;;;;25.48;59.71;101599.19;4927268;29;20036;-49
2021/09/11 10:55:50;;;;;;;12.93;8.75;;;;;;;25.07;60.88;101602.53;4929435;29;20170;-48
2021/09/11 10:58:25;;;;;;;9.77;8.70;;;;;;;24.79;61.95;101599.31;4928662;29;20107;-48
2021/09/11 11:01:01;;;;;;;12.05;10.07;;;;;;;23.96;64.37;101599.34;4928794;29;20385;-50
2021/09/11 11:03:28;;;;;;;11.32;9.82;;;;;;;23.80;65.34;101597.03;4929787;29;20047;-51
2021/09/11 11:06:05;;;;;;;12.18;9.60;;;;;;;24.17;64.28;101602.28;4925591;29;20032;-52
2021/09/11 11:08:32;;;;;;;11.27;10.07;;;;;;;23.73;66.10;101598.63;4910014;29;20023;-48
2021/09/11 11:11:02;;;;;;;12.10;10.25;;;;;;;23.94;65.13;101593.38;4926973;29;20036;-51
2021/09/11 11:13:27;;;;;;;14.10;11.30;;;;;;;23.84;65.52;101594.47;4928596;29;20059;-50
2021/09/11 11:15:57;;;;;;;10.48;9.40;;;;;;;23.78;64.49;101601.22;4928577;29;20513;-49
2021/09/11 11:18:27;;;;;;;13.25;10.90;;;;;;;23.96;64.59;101591.13;4929163;29;20023;-50
2021/09/11 11:20:53;;;;;;;11.30;9.23;;;;;;;24.05;64.19;101594.69;4929096;29;20032;-50
2021/09/11 11:23:18;;;;;;;10.82;9.00;;;;;;;24.64;61.88;101590.44;4928944;29;20033;-50
2021/09/11 11:25:44;;;;;;;10.30;9.23;;;;;;;24.90;60.46;101586.88;4928570;29;20176;-51
2021/09/11 11:28:14;;;;;;;10.18;9.10;;;;;;;25.28;59.74;101584.25;4930090;29;20043;-50
2021/09/11 11:30:41;;;;;;;9.13;8.23;;;;;;;25.75;57.25;101581.53;4928178;29;20031;-49
2021/09/11 11:33:07;;;;;;;10.00;8.27;;;;;;;25.19;58.62;101567.03;4930262;29;20040;-52
2021/09/11 11:35:34;;;;;;;8.48;7.57;;;;;;;24.47;61.00;101570.47;4927099;29;20478;-49
2021/09/11 11:37:59;;;;;;;9.18;7.97;;;;;;;24.18;61.19;101560.91;4927514;29;20036;-49
2021/09/11 11:40:26;;;;;;;11.20;9.13;;;;;;;23.44;63.69;101571.75;4929782;29;20026;-50
2021/09/11 11:42:53;;;;;;;8.98;8.07;;;;;;;23.66;64.00;101570.91;4928800;29;20110;-48
2021/09/11 11:45:25;;;;;;;9.88;8.50;;;;;;;23.64;64.33;101568.47;4929434;29;20098;-50
2021/09/11 11:48:02;;;;;;;8.23;7.38;;;;;;;24.30;62.08;101569.31;4910613;29;20040;-49
2021/09/11 11:50:38;;;;;;;11.30;7.57;;;;;;;24.17;62.04;101575.72;4927491;29;20030;-49
2021/09/11 11:53:06;;;;;;;8.80;7.60;;;;;;;24.50;59.64;101578.84;4928741;29;20035;-48
2021/09/11 11:55:34;;;;;;;9.75;7.55;;;;;;;24.43;59.48;101574.97;4928939;29;20110;-49
2021/09/11 11:58:14;;;;;;;9.75;7.65;;;;;;;25.21;58.25;101570.25;4928653;29;20468;-50
2021/09/11 12:00:43;;;;;;;7.70;6.90;;;;;;;26.47;53.80;101566.69;4927037;29;20172;-49
2021/09/11 12:03:34;;;;;;;7.68;6.85;;;;;;;25.19;55.74;101556.84;4930306;29;20164;-50
2021/09/11 12:06:05;;;;;;;8.93;6.60;;;;;;;25.58;56.33;101555.72;4927995;29;20036;-52
2021/09/11 12:08:36;;;;;;;7.07;6.28;;;;;;;25.73;55.88;101554.41;4928771;29;20027;-51
2021/09/11 12:11:02;;;;;;;7.72;6.93;;;;;;;26.01;55.11;101549.22;4929824;29;20068;-51
2021/09/11 12:13:28;;;;;;;6.13;5.47;;;;;;;27.19;52.37;101543.38;4927167;29;20028;-51
2021/09/11 12:15:54;;;;;;;5.90;5.30;;;;;;;30.51;43.95;101536.66;4928169;29;20042;-52
2021/09/11 12:18:20;;;;;;;6.28;5.70;;;;;;;29.27;45.53;101537.41;4929637;29;20163;-49
2021/09/11 12:20:49;;;;;;;7.38;5.68;;;;;;;29.62;44.82;101526.41;4925091;29;20120;-51
2021/09/11 12:23:28;;;;;;;6.63;5.80;;;;;;;29.99;44.05;101524.94;4928389;29;20588;-51
2021/09/11 12:26:00;;;;;;;6.05;5.22;;;;;;;33.09;38.16;101518.75;4927173;29;20565;-50
2021/09/11 12:28:36;;;;;;;5.47;4.97;;;;;;;33.41;36.35;101515.47;4927408;29;20031;-52
2021/09/11 12:31:18;;;;;;;5.68;4.95;;;;;;;34.45;34.61;101518.44;4927313;29;20075;-52
2021/09/11 12:33:54;;;;;;;7.35;4.40;;;;;;;34.95;33.58;101515.78;4927179;29;20070;-51
2021/09/11 12:36:46;;;;;;;5.35;4.90;;;;;;;32.36;37.20;101518.38;4925691;29;20034;-53
2021/09/11 12:39:15;;;;;;;5.40;4.90;;;;;;;30.53;41.01;101526.88;4924539;29;20019;-53
2021/09/11 12:41:41;;;;;;;7.03;5.45;;;;;;;28.74;45.03;101522.97;4926920;29;20664;-51
2021/09/11 12:44:08;;;;;;;6.45;5.30;;;;;;;27.06;49.57;101528.78;4928418;29;20113;-50
2021/09/11 12:46:40;;;;;;;6.20;5.60;;;;;;;27.63;49.37;101514.19;4926374;29;20115;-52
2021/09/11 12:49:09;;;;;;;7.82;5.30;;;;;;;29.54;44.37;101514.41;4925907;29;20046;-52
2021/09/11 12:51:38;;;;;;;5.28;4.63;;;;;;;31.39;39.99;101520.91;4926601;29;20102;-53
2021/09/11 12:54:04;;;;;;;5.65;4.93;;;;;;;31.75;38.82;101518.72;4912369;29;20028;-52
2021/09/11 12:56:30;;;;;;;5.22;4.72;;;;;;;34.40;33.71;101510.47;4928635;29;20027;-50
2021/09/11 12:58:58;;;;;;;7.35;3.83;;;;;;;36.15;30.90;101514.03;4927445;29;20035;-54
2021/09/11 13:01:24;;;;;;;4.80;4.18;;;;;;;33.63;33.79;101517.22;4922710;29;20811;-50
2021/09/11 13:03:50;;;;;;;5.28;4.78;;;;;;;31.50;38.50;101524.66;4928372;29;20061;-52
2021/09/11 13:06:17;;;;;;;7.45;3.90;;;;;;;33.21;36.15;101515.66;4926375;29;20879;-52
2021/09/11 13:08:43;;;;;;;4.65;4.15;;;;;;;31.20;39.08;101516.28;4919421;29;20663;-52
2021/09/11 13:11:11;;;;;;;6.53;4.30;;;;;;;32.53;36.61;101521.75;4918257;29;20031;-50
2021/09/11 13:13:37;;;;;;;4.13;3.70;;;;;;;28.96;42.62;101516.91;4926434;29;20408;-51
2021/09/11 13:16:04;;;;;;;3.58;3.28;;;;;;;32.32;36.70;101516.75;4925919;29;20035;-51
2021/09/11 13:18:30;;;;;;;3.75;3.45;;;;;;;33.23;33.42;101507.78;4923888;29;20024;-52
2021/09/11 13:20:58;;;;;;;3.80;3.50;;;;;;;32.88;34.56;101513.81;4927703;29;20031;-52
2021/09/11 13:23:25;;;;;;;4.50;3.25;;;;;;;32.46;34.76;101511.34;4928803;29;20055;-53
2021/09/11 13:25:51;;;;;;;3.53;3.22;;;;;;;30.15;38.86;101505.53;4925255;29;20043;-51
2021/09/11 13:28:17;;;;;;;3.60;3.30;;;;;;;27.44;45.14;101515.88;4925639;29;20075;-52
2021/09/11 13:30:43;;;;;;;3.00;2.80;;;;;;;29.43;41.18;101505.03;4927021;29;20032;-52
2021/09/11 13:33:08;;;;;;;4.65;3.20;;;;;;;30.24;40.04;101511.66;4926241;28;20027;-52
2021/09/11 13:35:36;;;;;;;4.03;3.55;;;;;;;30.89;38.60;101519.28;4925252;29;20027;-52
2021/09/11 13:38:03;;;;;;;4.68;3.83;;;;;;;32.39;35.55;101503.75;4925963;29;20088;-50
2021/09/11 13:40:29;;;;;;;3.95;3.28;;;;;;;32.94;33.96;101501.19;4927492;29;20260;-52
2021/09/11 13:42:55;;;;;;;3.47;3.10;;;;;;;32.98;34.25;101499.22;4924106;29;20406;-52
2021/09/11 13:45:20;;;;;;;3.55;3.20;;;;;;;31.10;37.18;101508.56;4927395;29;20023;-50
2021/09/11 13:47:46;;;;;;;3.55;3.25;;;;;;;32.67;34.50;101499.69;4923588;29;20040;-52
2021/09/11 13:50:12;;;;;;;3.05;2.75;;;;;;;32.48;34.74;101506.22;4926821;29;20134;-49
2021/09/11 13:52:38;;;;;;;3.90;3.10;;;;;;;32.98;33.09;101503.97;4926029;29;20046;-52
2021/09/11 13:55:05;;;;;;;2.63;2.42;;;;;;;33.59;31.16;101508.06;4921234;29;20032;-52
2021/09/11 13:57:31;;;;;;;3.33;2.88;;;;;;;31.04;35.82;101503.69;4925092;29;20035;-51
2021/09/11 13:59:56;;;;;;;3.28;3.00;;;;;;;29.36;39.50;101504.88;4924910;29;20032;-49
2021/09/11 14:02:22;;;;;;;3.47;3.00;;;;;;;28.93;40.64;101503.81;4925565;29;20442;-52
2021/09/11 14:04:48;;;;;;;3.75;3.45;;;;;;;27.68;43.26;101508.47;4926499;29;20036;-52
2021/09/11 14:07:13;;;;;;;3.00;2.70;;;;;;;28.93;40.80;101498.31;4926519;29;20038;-50
2021/09/11 14:09:39;;;;;;;4.05;3.45;;;;;;;27.87;42.57;101502.34;4923761;29;20039;-50
2021/09/11 14:12:05;;;;;;;3.38;2.88;;;;;;;30.78;36.99;101505.22;4923181;29;20137;-50
2021/09/11 14:14:31;;;;;;;3.90;2.88;;;;;;;32.69;33.08;101498.16;4926532;29;20027;-49
2021/09/11 14:16:58;;;;;;;3.35;2.53;;;;;;;33.98;31.29;101494.41;4922650;29;20035;-52
2021/09/11 14:19:24;;;;;;;2.88;2.67;;;;;;;31.03;35.55;101511.19;4925650;29;20052;-52
2021/09/11 14:21:49;;;;;;;2.70;2.50;;;;;;;32.82;32.30;101503.44;4925068;29;20110;-49
2021/09/11 14:24:15;;;;;;;2.90;2.67;;;;;;;31.24;35.35;101502.50;4920446;29;20032;-52
2021/09/11 14:26:41;;;;;;;3.88;2.70;;;;;;;32.35;34.35;101502.13;4925537;29;20084;-51
2021/09/11 14:29:07;;;;;;;3.50;3.20;;;;;;;32.35;33.88;101504.91;4924381;29;20442;-52
2021/09/11 14:31:33;;;;;;;6.35;3.80;;;;;;;31.77;34.90;101503.31;4926431;29;20558;-51
2021/09/11 14:34:01;;;;;;;4.85;3.35;;;;;;;32.92;32.66;101505.53;4925910;29;20036;-50
2021/09/11 14:36:29;;;;;;;3.00;2.80;;;;;;;35.06;29.91;101502.66;4925915;29;20035;-51
2021/09/11 14:38:55;;;;;;;3.42;3.13;;;;;;;38.22;25.78;101487.94;4928687;29;20051;-50
2021/09/11 14:41:20;;;;;;;3.35;3.05;;;;;;;40.18;23.75;101487.34;4930753;29;20027;-51
2021/09/11 14:43:46;;;;;;;3.00;2.70;;;;;;;38.04;25.26;101488.16;4928110;29;20470;-52
2021/09/11 14:46:12;;;;;;;5.10;2.97;;;;;;;39.51;23.76;101478.28;4928756;29;20030;-51
2021/09/11 14:48:38;;;;;;;3.92;3.53;;;;;;;36.41;27.24;101481.22;4928772;29;20525;-50
2021/09/11 14:51:04;;;;;;;3.78;3.45;;;;;;;38.51;24.96;101477.13;4925771;29;20028;-49
2021/09/11 14:53:30;;;;;;;4.88;4.47;;;;;;;40.29;22.87;101468.25;4930192;29;20023;-50
2021/09/11 14:55:56;;;;;;;4.38;3.50;;;;;;;41.38;20.84;101463.19;4922572;29;20038;-51
2021/09/11 14:58:22;;;;;;;3.70;2.60;;;;;;;40.45;21.65;101473.94;4928232;29;20597;-52
2021/09/11 15:00:47;;;;;;;2.92;2.60;;;;;;;38.20;24.53;101475.59;4924323;29;20051;-51
2021/09/11 15:03:13;;;;;;;4.00;2.70;;;;;;;35.64;28.23;101483.91;4928808;29;20070;-50
2021/09/11 15:05:39;;;;;;;3.63;2.70;;;;;;;35.89;27.82;101481.84;4929023;29;20699;-51
2021/09/11 15:08:05;;;;;;;2.90;2.70;;;;;;;33.37;31.56;101486.84;4928548;29;20109;-52
2021/09/11 15:10:32;;;;;;;3.13;2.78;;;;;;;32.01;34.08;101482.69;4931288;29;20078;-51
2021/09/11 15:12:58;;;;;;;3.30;3.00;;;;;;;31.49;34.96;101475.19;4923675;29;20894;-51
2021/09/11 15:15:23;;;;;;;6.15;3.13;;;;;;;32.25;34.34;101481.38;4925355;29;20031;-49
2021/09/11 15:17:50;;;;;;;5.15;2.85;;;;;;;33.47;31.62;101488.94;4929577;29;20581;-50
2021/09/11 15:20:16;;;;;;;6.18;2.60;;;;;;;31.53;34.69;101492.66;4926764;29;20031;-49
2021/09/11 15:22:43;;;;;;;5.88;3.72;;;;;;;30.46;37.20;101492.72;4924828;29;20028;-50
2021/09/11 15:25:11;;;;;;;2.72;2.53;;;;;;;29.43;39.84;101482.97;4929522;29;20066;-50
2021/09/11 15:27:39;;;;;;;5.68;4.50;;;;;;;28.66;41.50;101477.06;4929286;29;20035;-50
2021/09/11 15:30:12;;;;;;;4.20;3.55;;;;;;;28.36;42.44;101491.19;4924652;29;20035;-48
2021/09/11 15:32:38;;;;;;;3.92;3.40;;;;;;;27.66;43.80;101483.22;4930024;29;20040;-48
2021/09/11 15:35:06;;;;;;;14.63;11.00;;;;;;;27.54;44.37;101476.91;4927805;28;20573;-49
2021/09/11 15:37:32;;;;;;;4.43;4.03;;;;;;;27.99;42.85;101485.78;4924281;29;20036;-49
2021/09/11 15:39:59;;;;;;;7.45;5.85;;;;;;;30.11;39.33;101481.75;4927386;29;20024;-48
2021/09/11 15:42:25;;;;;;;3.67;3.03;;;;;;;29.32;40.32;101473.63;4922995;29;20038;-49
2021/09/11 15:44:51;;;;;;;3.65;3.25;;;;;;;29.28;40.48;101472.75;4924562;29;20114;-49
2021/09/11 15:47:19;;;;;;;3.72;3.10;;;;;;;28.86;41.12;101476.03;4927495;29;20573;-48
2021/09/11 15:49:45;;;;;;;2.63;2.42;;;;;;;28.27;42.48;101474.03;4902162;29;20067;-49
2021/09/11 15:52:10;;;;;;;3.20;2.90;;;;;;;26.82;45.60;101484.72;4924513;29;20502;-49
2021/09/11 15:54:36;;;;;;;11.00;2.58;;;;;;;30.18;39.01;101476.41;4926930;29;20031;-48
2021/09/11 15:57:02;;;;;;;4.57;2.85;;;;;;;32.24;34.44;101470.66;4926571;29;20046;-48
2021/09/11 15:59:27;;;;;;;3.17;2.50;;;;;;;31.39;35.12;101475.81;4926501;29;20575;-48
2021/09/11 16:01:53;;;;;;;3.10;2.65;;;;;;;31.50;34.67;101466.50;4925362;29;20027;-51
2021/09/11 16:04:19;;;;;;;4.03;2.90;;;;;;;32.33;33.55;101468.44;4924865;29;20632;-49
2021/09/11 16:06:45;;;;;;;3.20;2.67;;;;;;;32.76;32.67;101464.91;4925185;29;20036;-49
2021/09/11 16:09:10;;;;;;;3.00;2.70;;;;;;;32.00;34.05;101472.75;4925987;29;20075;-51
2021/09/11 16:11:36;;;;;;;3.13;2.55;;;;;;;31.98;34.50;101466.00;4928238;29;20086;-49
2021/09/11 16:14:02;;;;;;;4.18;2.70;;;;;;;30.58;36.84;101468.50;4920653;29;20038;-48
2021/09/11 16:16:27;;;;;;;4.75;3.15;;;;;;;28.87;40.06;101467.41;4919645;29;20046;-50
2021/09/11 16:18:53;;;;;;;5.03;3.22;;;;;;;30.04;38.28;101472.16;4921240;29;20030;-49
2021/09/11 16:21:18;;;;;;;4.32;3.13;;;;;;;30.05;38.16;101472.97;4926457;29;20849;-50
2021/09/11 16:23:45;;;;;;;3.90;3.17;;;;;;;29.53;39.40;101471.41;4923867;29;20028;-48
2021/09/11 16:26:11;;;;;;;2.95;2.65;;;;;;;29.08;40.57;101475.41;4925869;29;20066;-50
2021/09/11 16:28:36;;;;;;;3.13;2.83;;;;;;;30.64;37.44;101469.00;4922074;29;20036;-48
2021/09/11 16:31:03;;;;;;;4.78;2.95;;;;;;;31.54;35.60;101461.81;4927418;29;20129;-49
2021/09/11 16:33:28;;;;;;;3.35;3.05;;;;;;;29.54;39.06;101478.53;4929072;29;20031;-50
2021/09/11 16:35:54;;;;;;;2.83;2.63;;;;;;;30.18;37.81;101479.16;4927596;29;20027;-48
2021/09/11 16:38:19;;;;;;;5.82;3.03;;;;;;;29.94;37.87;101472.69;4923848;29;20114;-49
2021/09/11 16:40:45;;;;;;;3.63;2.70;;;;;;;28.46;40.87;101485.19;4926995;29;20378;-48
2021/09/11 16:43:11;;;;;;;3.47;3.17;;;;;;;27.26;43.73;101483.06;4925705;29;20505;-48
2021/09/11 16:45:39;;;;;;;4.47;2.60;;;;;;;27.56;42.93;101483.66;4927741;29;20435;-49
2021/09/11 16:48:05;;;;;;;2.97;2.40;;;;;;;26.46;45.69;101490.91;4926522;29;20028;-50
2021/09/11 16:50:31;;;;;;;3.53;3.22;;;;;;;24.95;50.09;101486.06;4928264;29;20023;-48
2021/09/11 16:52:57;;;;;;;2.70;2.50;;;;;;;25.26;48.91;101487.78;4924828;29;20039;-51
2021/09/11 16:55:22;;;;;;;4.53;2.85;;;;;;;25.13;49.16;101494.28;4919558;29;20389;-48
2021/09/11 16:57:48;;;;;;;2.80;2.50;;;;;;;24.24;52.02;101488.44;4921515;29;20504;-48
2021/09/11 17:00:14;;;;;;;3.08;2.50;;;;;;;23.72;54.00;101493.84;4924681;29;20082;-48
2021/09/11 17:02:43;;;;;;;7.15;2.53;;;;;;;23.42;54.72;101489.22;4926337;29;20028;-49
2021/09/11 17:05:14;;;;;;;6.10;2.78;;;;;;;23.49;54.33;101498.56;4925940;29;20114;-47
2021/09/11 17:07:40;;;;;;;3.88;3.00;;;;;;;23.12;55.69;101499.88;4924099;29;20486;-48
2021/09/11 17:10:06;;;;;;;3.22;2.90;;;;;;;22.95;56.39;101496.22;4924897;29;20039;-47
2021/09/11 17:12:32;;;;;;;3.45;3.00;;;;;;;22.76;57.24;101496.41;4923010;29;20027;-48
2021/09/11 17:15:01;;;;;;;4.15;3.25;;;;;;;22.79;57.01;101503.97;4922141;29;20509;-51
2021/09/11 17:17:26;;;;;;;3.67;3.28;;;;;;;22.73;57.60;101494.31;4925760;29;20032;-49
2021/09/11 17:19:52;;;;;;;3.40;3.05;;;;;;;22.66;57.89;101502.94;4924123;29;20020;-48
2021/09/11 17:22:17;;;;;;;4.15;3.33;;;;;;;22.75;57.82;101497.53;4919901;29;20047;-48
2021/09/11 17:24:43;;;;;;;4.65;4.15;;;;;;;22.28;59.66;101503.31;4927876;29;20043;-50
2021/09/11 17:27:08;;;;;;;6.18;3.88;;;;;;;22.41;59.05;101501.63;4923823;29;20541;-50
2021/09/11 17:29:34;;;;;;;5.68;3.58;;;;;;;22.68;57.75;101508.09;4923419;29;20042;-49
2021/09/11 17:31:59;;;;;;;8.50;3.50;;;;;;;22.54;58.63;101516.34;4925451;29;20027;-48
2021/09/11 17:34:25;;;;;;;7.75;3.40;;;;;;;22.10;60.41;101525.31;4925673;29;20031;-48
2021/09/11 17:36:50;;;;;;;3.97;2.80;;;;;;;21.85;61.21;101516.50;4924869;29;20471;-48
2021/09/11 17:39:16;;;;;;;6.45;3.40;;;;;;;21.96;60.69;101515.19;4920921;29;20312;-47
2021/09/11 17:41:42;;;;;;;8.10;3.80;;;;;;;22.02;60.42;101519.41;4923544;29;20035;-50
2021/09/11 17:44:08;;;;;;;5.57;2.78;;;;;;;22.13;60.17;101516.50;4926018;29;20028;-48
2021/09/11 17:46:33;;;;;;;3.83;3.10;;;;;;;22.16;59.79;101524.06;4922578;29;20415;-48
2021/09/11 17:49:00;;;;;;;4.40;2.78;;;;;;;22.26;59.61;101519.19;4924447;29;20028;-50
2021/09/11 17:51:25;;;;;;;14.40;4.20;;;;;;;22.28;59.41;101527.06;4925225;29;20074;-47
2021/09/11 17:53:51;;;;;;;44.30;7.60;;;;;;;22.26;59.27;101530.13;4924751;29;20063;-49
2021/09/11 17:56:18;;;;;;;17.83;4.80;;;;;;;22.23;59.18;101538.09;4921622;29;20103;-48
2021/09/11 17:58:43;;;;;;;15.23;4.25;;;;;;;22.14;59.22;101538.03;4920822;29;20027;-48
2021/09/11 18:01:09;;;;;;;8.80;4.22;;;;;;;22.07;59.57;101532.16;4923707;29;20378;-48
2021/09/11 18:03:35;;;;;;;8.77;4.22;;;;;;;21.99;60.13;101536.41;4925182;29;20031;-48
2021/09/11 18:06:00;;;;;;;14.88;4.38;;;;;;;21.94;60.46;101536.50;4925614;29;20031;-49
2021/09/11 18:08:26;;;;;;;37.70;6.00;;;;;;;21.85;60.96;101543.78;4925573;29;20066;-50
2021/09/11 18:10:52;;;;;;;20.45;4.55;;;;;;;21.76;61.33;101542.09;4925929;29;20284;-48
2021/09/11 18:13:17;;;;;;;25.50;5.20;;;;;;;21.66;61.66;101548.53;4927829;29;20043;-51
2021/09/11 18:15:43;;;;;;;17.83;4.60;;;;;;;21.59;62.13;101545.41;4927363;29;20375;-49
2021/09/11 18:18:09;;;;;;;14.00;4.68;;;;;;;21.50;62.66;101556.22;4925080;29;20499;-48
2021/09/11 18:20:37;;;;;;;10.50;4.25;;;;;;;21.41;62.91;101558.84;4929100;29;20071;-49
2021/09/11 18:23:03;;;;;;;8.73;3.95;;;;;;;21.27;63.32;101558.00;4926581;29;20054;-48
2021/09/11 18:25:28;;;;;;;9.05;4.00;;;;;;;21.19;63.65;101560.59;4928160;29;20474;-47
2021/09/11 18:27:54;;;;;;;15.75;4.47;;;;;;;21.12;63.88;101566.41;4928291;29;20039;-51
2021/09/11 18:30:19;;;;;;;34.45;5.75;;;;;;;21.04;63.96;101564.38;4925655;29;20035;-48
2021/09/11 18:32:46;;;;;;;41.05;5.28;;;;;;;20.98;64.21;101563.63;4929656;29;20038;-48
2021/09/11 18:35:11;;;;;;;30.15;5.07;;;;;;;20.89;64.37;101570.06;4927245;29;20057;-49
2021/09/11 18:37:37;;;;;;;10.65;4.28;;;;;;;20.79;64.53;101569.13;4930011;29;20425;-48
2021/09/11 18:40:05;;;;;;;8.27;4.40;;;;;;;20.75;64.97;101573.56;4924013;29;20035;-48
2021/09/11 18:42:30;;;;;;;7.00;4.22;;;;;;;20.66;65.09;101577.25;4929248;29;20035;-48
2021/09/11 18:44:56;;;;;;;7.47;4.28;;;;;;;20.54;65.65;101566.81;4926955;29;20035;-48
2021/09/11 18:47:22;;;;;;;8.68;5.05;;;;;;;20.49;65.68;101581.31;4926308;29;20027;-51
2021/09/11 18:49:47;;;;;;;6.10;4.65;;;;;;;20.46;66.06;101576.41;4926666;29;20043;-47
2021/09/11 18:52:13;;;;;;;8.60;4.15;;;;;;;20.35;66.08;101580.38;4928251;29;20120;-48
2021/09/11 18:54:40;;;;;;;6.00;4.53;;;;;;;20.33;65.95;101587.22;4924339;29;20506;-49
2021/09/11 18:57:05;;;;;;;7.13;4.40;;;;;;;20.18;66.74;101591.75;4928854;29;20031;-48
2021/09/11 18:59:31;;;;;;;7.45;4.30;;;;;;;20.05;67.34;101603.34;4927583;29;20083;-48
2021/09/11 19:01:56;;;;;;;7.10;4.50;;;;;;;20.01;67.48;101594.16;4928819;29;20063;-48
2021/09/11 19:04:22;;;;;;;7.85;5.00;;;;;;;19.95;67.65;101592.59;4926958;29;20119;-50
2021/09/11 19:06:47;;;;;;;7.78;4.32;;;;;;;19.91;67.74;101594.25;4924976;29;20051;-49
2021/09/11 19:09:13;;;;;;;7.55;5.28;;;;;;;19.84;68.04;101607.41;4913211;29;20159;-50
2021/09/11 19:11:40;;;;;;;11.10;4.75;;;;;;;19.73;68.27;101603.16;4926589;29;20043;-49
2021/09/11 19:14:06;;;;;;;8.40;3.90;;;;;;;19.63;67.80;101603.28;4924133;29;20111;-51
2021/09/11 19:16:32;;;;;;;4.65;3.95;;;;;;;19.57;67.96;101597.91;4924073;29;20031;-50
2021/09/11 19:18:58;;;;;;;6.05;4.40;;;;;;;19.47;68.21;101600.69;4923993;29;20042;-50
2021/09/11 19:21:23;;;;;;;6.63;4.43;;;;;;;19.48;68.55;101610.47;4926111;29;20030;-47
2021/09/11 19:23:49;;;;;;;13.68;8.30;;;;;;;19.40;69.64;101602.94;4927137;29;20104;-47
2021/09/11 19:26:15;;;;;;;15.60;8.50;;;;;;;19.48;70.07;101604.22;4917727;29;20038;-49
2021/09/11 19:28:41;;;;;;;9.98;8.48;;;;;;;19.40;70.71;101592.09;4925174;29;20176;-47
2021/09/11 19:31:08;;;;;;;12.45;9.43;;;;;;;19.38;71.02;101604.31;4917073;29;20036;-48
2021/09/11 19:33:33;;;;;;;13.32;8.35;;;;;;;19.22;71.72;101606.38;4926416;29;20573;-48
2021/09/11 19:35:59;;;;;;;12.73;7.82;;;;;;;19.26;71.33;101607.41;4924821;29;20114;-50
2021/09/11 19:38:24;;;;;;;12.55;8.52;;;;;;;18.90;74.57;101618.56;4925904;29;20118;-48
2021/09/11 19:40:50;;;;;;;10.35;8.15;;;;;;;19.16;72.67;101613.75;4922672;29;20478;-51
2021/09/11 19:43:16;;;;;;;13.60;8.02;;;;;;;19.13;72.44;101608.88;4926395;29;20370;-48
2021/09/11 19:45:44;;;;;;;13.30;8.57;;;;;;;18.78;75.38;101612.66;4924143;29;20094;-51
2021/09/11 19:48:09;;;;;;;9.70;7.53;;;;;;;18.75;75.86;101613.25;4919619;29;20116;-50
2021/09/11 19:50:39;;;;;;;9.43;7.50;;;;;;;18.59;76.65;101611.69;4924285;29;20111;-48
2021/09/11 19:53:05;;;;;;;12.88;7.25;;;;;;;18.68;76.06;101613.56;4909795;29;20030;-48
2021/09/11 19:55:32;;;;;;;12.25;7.40;;;;;;;18.86;74.84;101606.66;4922103;29;20462;-48
2021/09/11 19:57:57;;;;;;;10.80;7.85;;;;;;;18.91;74.25;101606.63;4916514;29;20050;-49
2021/09/11 20:00:23;;;;;;;10.23;7.32;;;;;;;19.00;73.96;101602.19;4923613;29;20379;-50
2021/09/11 20:02:48;;;;;;;9.32;7.20;;;;;;;19.05;73.30;101604.06;4923912;29;20032;-49
2021/09/11 20:05:14;;;;;;;9.80;7.47;;;;;;;19.05;72.75;101603.25;4919288;29;20028;-47
2021/09/11 20:07:39;;;;;;;10.20;7.53;;;;;;;19.01;72.51;101601.09;4918712;29;20028;-51
2021/09/11 20:10:06;;;;;;;17.17;8.32;;;;;;;18.96;72.54;101598.41;4923359;29;20035;-47
2021/09/11 20:12:33;;;;;;;8.35;7.05;;;;;;;18.93;72.63;101606.31;4922926;29;20189;-51